Time;durP1;ratioP1;P1;durP2;ratioP2;P2;SDS_P1;SDS_P2;PMS_P1;PMS_P2;Temp;Humidity;BMP_temperature;BMP_pressure;BME280_temperature;BME280_humidity;BME280_pressure;Samples;Min_cycle;Max_cycle;Signal;HPM_P1;HPM_P2
2022/05/02 00:02:18;;;;;;;1.40;1.30;;;;;;;-148.56;100.00;61375.16;5041126;28;20028;-29
2022/05/02 00:05:41;;;;;;;1.45;1.35;;;;;;;-148.56;100.00;61375.16;5045883;28;20147;-30
2022/05/02 00:08:52;;;;;;;2.45;1.40;;;;;;;-148.56;100.00;61375.16;5041655;28;20083;-32
2022/05/02 00:12:04;;;;;;;1.95;1.42;;;;;;;-148.56;100.00;61375.16;5045002;28;20643;-31
2022/05/02 00:15:27;;;;;;;1.73;1.50;;;;;;;-148.56;100.00;61375.16;5044668;28;20035;-31
2022/05/02 00:18:49;;;;;;;1.50;1.25;;;;;;;-148.56;100.00;61375.16;5047839;28;20028;-32
2022/05/02 00:21:50;;;;;;;2.03;1.30;;;;;;;-148.56;100.00;61375.16;5040161;28;20024;-32
2022/05/02 00:25:13;;;;;;;1.40;1.30;;;;;;;-148.56;100.00;61375.16;5048019;28;20108;-33
2022/05/02 00:28:35;;;;;;;1.52;1.40;;;;;;;-148.56;100.00;61375.16;5041346;28;20078;-31
2022/05/02 00:31:58;;;;;;;1.83;1.40;;;;;;;-148.56;100.00;61375.16;5050966;28;20036;-31
2022/05/02 00:35:20;;;;;;;1.35;1.25;;;;;;;-148.56;100.00;61375.16;5040417;28;20470;-32
2022/05/02 00:38:41;;;;;;;1.55;1.30;;;;;;;-148.56;100.00;61375.16;5044766;28;20029;-31
2022/05/02 00:41:57;;;;;;;1.48;1.23;;;;;;;-148.56;100.00;61375.16;5042260;28;20032;-32
2022/05/02 00:45:21;;;;;;;1.83;1.45;;;;;;;-148.56;100.00;61375.16;5044157;28;20060;-32
2022/05/02 00:48:50;;;;;;;1.92;1.38;;;;;;;-148.56;100.00;61375.16;5046625;28;20237;-31
2022/05/02 00:52:14;;;;;;;2.13;1.40;;;;;;;-148.56;100.00;61375.16;5053710;28;20089;-32
2022/05/02 00:55:38;;;;;;;2.35;1.48;;;;;;;-148.56;100.00;61375.16;5047167;28;20093;-31
2022/05/02 00:59:00;;;;;;;3.05;1.50;;;;;;;-148.56;100.00;61375.16;5041868;28;20056;-31
2022/05/02 01:02:24;;;;;;;1.50;1.40;;;;;;;-148.56;100.00;61375.16;5046197;28;20156;-34
2022/05/02 01:09:29;;;;;;;1.75;1.52;;;;;;;-148.56;100.00;61375.16;5028916;28;20132;-31
2022/05/02 01:12:52;;;;;;;1.73;1.30;;;;;;;-148.56;100.00;61375.16;5043634;28;20037;-30
2022/05/02 01:16:16;;;;;;;2.90;1.40;;;;;;;-148.56;100.00;61375.16;5049053;28;20039;-32
2022/05/02 01:19:40;;;;;;;2.17;1.20;;;;;;;-148.56;100.00;61375.16;5049615;28;20542;-31
2022/05/02 01:23:03;;;;;;;2.75;1.38;;;;;;;-148.56;100.00;61375.16;5047914;28;20029;-31
2022/05/02 01:26:26;;;;;;;1.95;1.50;;;;;;;-148.56;100.00;61375.16;5039762;28;20028;-30
2022/05/02 01:29:50;;;;;;;1.38;1.25;;;;;;;-148.56;100.00;61375.16;5046595;28;20710;-31
2022/05/02 01:33:14;;;;;;;1.48;1.33;;;;;;;-148.56;100.00;61375.16;5042422;28;20033;-32
2022/05/02 01:36:36;;;;;;;2.40;1.50;;;;;;;-148.56;100.00;61375.16;5042666;28;20025;-31
2022/05/02 01:39:58;;;;;;;2.47;1.55;;;;;;;-148.56;100.00;61375.16;5042673;28;20036;-32
2022/05/02 01:43:06;;;;;;;1.77;1.33;;;;;;;-148.56;100.00;61375.16;5051454;28;20118;-30
2022/05/02 01:46:29;;;;;;;1.67;1.27;;;;;;;-148.56;100.00;61375.16;5050066;28;20020;-32
2022/05/02 01:49:53;;;;;;;1.50;1.40;;;;;;;-148.56;100.00;61375.16;5053214;28;20677;-31
2022/05/02 01:53:17;;;;;;;2.03;1.40;;;;;;;-148.56;100.00;61375.16;5041177;28;20036;-31
2022/05/02 01:56:40;;;;;;;3.38;1.25;;;;;;;-148.56;100.00;61375.16;5052674;28;20048;-31
2022/05/02 02:00:04;;;;;;;3.15;1.40;;;;;;;-148.56;100.00;61375.16;5052711;28;20040;-31
2022/05/02 02:03:27;;;;;;;2.17;1.30;;;;;;;-148.56;100.00;61375.16;5050109;28;20054;-31
2022/05/02 02:06:51;;;;;;;2.28;1.40;;;;;;;-148.56;100.00;61375.16;5055745;28;20168;-30
2022/05/02 02:10:14;;;;;;;2.03;1.17;;;;;;;-148.56;100.00;61375.16;5052449;28;20029;-31
2022/05/02 02:13:38;;;;;;;2.17;1.48;;;;;;;-148.56;100.00;61375.16;5047658;28;20640;-31
2022/05/02 02:17:02;;;;;;;1.48;1.10;;;;;;;-148.56;100.00;61375.16;5055017;28;20036;-31
2022/05/02 02:20:25;;;;;;;1.95;1.30;;;;;;;-148.56;100.00;61375.16;5054506;28;20092;-31
2022/05/02 02:23:48;;;;;;;1.75;1.20;;;;;;;-148.56;100.00;61375.16;5043952;28;20036;-30
2022/05/02 02:27:12;;;;;;;2.70;1.10;;;;;;;-148.56;100.00;61375.16;5043998;28;20033;-32
2022/05/02 02:30:35;;;;;;;1.50;1.40;;;;;;;-148.56;100.00;61375.16;5049087;28;20804;-31
2022/05/02 02:33:59;;;;;;;1.30;1.20;;;;;;;-148.56;100.00;61375.16;5047089;28;20052;-30
2022/05/02 02:37:22;;;;;;;2.60;1.48;;;;;;;-148.56;100.00;61375.16;5046853;28;20570;-30
2022/05/02 02:40:46;;;;;;;1.58;1.25;;;;;;;-148.56;100.00;61375.16;5046922;28;20075;-31
2022/05/02 02:44:09;;;;;;;1.30;1.20;;;;;;;-148.56;100.00;61375.16;5045136;28;20494;-32
2022/05/02 02:47:33;;;;;;;1.85;1.25;;;;;;;-148.56;100.00;61375.16;5047173;28;20037;-30
2022/05/02 02:50:59;;;;;;;2.40;1.48;;;;;;;-148.56;100.00;61375.16;5054500;28;20060;-30
2022/05/02 02:54:23;;;;;;;1.40;1.30;;;;;;;-148.56;100.00;61375.16;5049968;28;20103;-31
2022/05/02 02:57:46;;;;;;;3.20;1.25;;;;;;;-148.56;100.00;61375.16;5055334;28;20039;-31
2022/05/02 03:01:08;;;;;;;1.90;1.38;;;;;;;-148.56;100.00;61375.16;5054629;28;20028;-31
2022/05/02 03:08:09;;;;;;;1.90;1.20;;;;;;;-148.56;100.00;61375.16;5053864;28;20118;-31
2022/05/02 03:11:32;;;;;;;1.02;0.90;;;;;;;-148.56;100.00;61375.16;5035939;28;20082;-31
2022/05/02 03:14:55;;;;;;;1.40;1.30;;;;;;;-148.56;100.00;61375.16;5036956;28;20040;-31
2022/05/02 03:18:19;;;;;;;1.33;1.15;;;;;;;-148.56;100.00;61375.16;5048196;28;20762;-31
2022/05/02 03:21:43;;;;;;;1.75;1.25;;;;;;;-148.56;100.00;61375.16;5040164;28;20039;-36
2022/05/02 03:25:06;;;;;;;1.30;1.20;;;;;;;-148.56;100.00;61375.16;5051862;28;20068;-30
2022/05/02 03:28:30;;;;;;;1.70;1.25;;;;;;;-148.56;100.00;61375.16;5039792;28;20117;-31
2022/05/02 03:31:53;;;;;;;2.70;1.48;;;;;;;-148.56;100.00;61375.16;5054923;28;20028;-31
2022/05/02 03:35:16;;;;;;;3.03;1.23;;;;;;;-148.56;100.00;61375.16;5049786;28;20057;-29
2022/05/02 03:38:40;;;;;;;1.35;1.10;;;;;;;-148.56;100.00;61375.16;5053094;28;20552;-33
2022/05/02 03:42:03;;;;;;;1.55;1.30;;;;;;;-148.56;100.00;61375.16;5050189;28;20907;-31
2022/05/02 03:45:27;;;;;;;1.20;1.10;;;;;;;-148.56;100.00;61375.16;5047641;28;20402;-31
2022/05/02 03:48:50;;;;;;;1.13;1.10;;;;;;;-148.56;100.00;61375.16;5052294;28;20064;-29
2022/05/02 03:52:14;;;;;;;1.15;1.05;;;;;;;-148.56;100.00;61375.16;5053019;28;20080;-30
2022/05/02 03:55:37;;;;;;;1.60;1.08;;;;;;;-148.56;100.00;61375.16;5039049;28;20028;-31
2022/05/02 03:59:01;;;;;;;1.88;1.30;;;;;;;-148.56;100.00;61375.16;5048738;28;20063;-31
2022/05/02 04:02:24;;;;;;;1.27;1.10;;;;;;;-148.56;100.00;61375.16;5047963;28;20038;-30
2022/05/02 04:05:47;;;;;;;1.38;1.02;;;;;;;-148.56;100.00;61375.16;5047842;28;20908;-30
2022/05/02 04:09:10;;;;;;;1.23;1.10;;;;;;;-148.56;100.00;61375.16;5046794;28;20498;-31
2022/05/02 04:12:34;;;;;;;2.25;1.33;;;;;;;-148.56;100.00;61375.16;5050023;28;20059;-33
2022/05/02 04:15:57;;;;;;;0.88;0.88;;;;;;;-148.56;100.00;61375.16;5043962;28;20098;-29
2022/05/02 04:19:19;;;;;;;1.27;1.17;;;;;;;-148.56;100.00;61375.16;5043512;28;20056;-31
2022/05/02 04:22:41;;;;;;;1.40;1.17;;;;;;;-148.56;100.00;61375.16;5052006;28;20581;-31
2022/05/02 04:26:05;;;;;;;2.17;1.50;;;;;;;-148.56;100.00;61375.16;5052010;28;20032;-31
2022/05/02 04:29:27;;;;;;;2.33;1.27;;;;;;;-148.56;100.00;61375.16;5049365;28;20056;-32
2022/05/02 04:32:51;;;;;;;1.45;1.30;;;;;;;-148.56;100.00;61375.16;5048426;28;20147;-30
2022/05/02 04:36:15;;;;;;;1.33;1.23;;;;;;;-148.56;100.00;61375.16;5050091;28;20028;-31
2022/05/02 04:39:38;;;;;;;1.52;1.20;;;;;;;-148.56;100.00;61375.16;5049535;28;20442;-30
2022/05/02 04:43:02;;;;;;;1.38;1.20;;;;;;;-148.56;100.00;61375.16;5049321;28;20101;-31
2022/05/02 04:46:23;;;;;;;2.45;1.20;;;;;;;-148.56;100.00;61375.16;5051398;28;20029;-30
2022/05/02 04:49:46;;;;;;;1.20;1.10;;;;;;;-148.56;100.00;61375.16;5048679;28;20040;-31
2022/05/02 04:53:09;;;;;;;9.60;2.30;;;;;;;-148.56;100.00;61375.16;5044720;28;20150;-31
2022/05/02 04:56:33;;;;;;;7.82;1.67;;;;;;;-148.56;100.00;61375.16;5049873;28;20086;-31
2022/05/02 04:59:56;;;;;;;2.13;1.30;;;;;;;-148.56;100.00;61375.16;5048990;28;20036;-31
2022/05/02 05:03:20;;;;;;;4.07;1.30;;;;;;;-148.56;100.00;61375.16;5049920;28;20056;-30
2022/05/02 05:06:44;;;;;;;2.92;1.35;;;;;;;-148.56;100.00;61375.16;5055214;28;20406;-31
2022/05/02 05:10:09;;;;;;;1.00;1.00;;;;;;;-148.56;100.00;61375.16;5052607;28;20143;-31
2022/05/02 05:17:48;;;;;;;1.52;1.17;;;;;;;-148.56;100.00;61375.16;5022008;28;20287;-29
2022/05/02 05:21:41;;;;;;;2.60;1.17;;;;;;;-148.56;100.00;61375.16;5046901;28;20028;-30
2022/05/02 05:25:39;;;;;;;2.88;1.13;;;;;;;-148.56;100.00;61375.16;5048917;28;20036;-30
2022/05/02 05:29:18;;;;;;;1.50;1.20;;;;;;;-148.56;100.00;61375.16;5051677;28;20045;-30
2022/05/02 05:32:57;;;;;;;3.78;1.10;;;;;;;-148.56;100.00;61375.16;5028834;28;20037;-30
2022/05/02 05:36:38;;;;;;;1.90;1.13;;;;;;;-148.56;100.00;61375.16;5047927;28;20556;-31
2022/05/02 05:40:21;;;;;;;1.42;1.20;;;;;;;-148.56;100.00;61375.16;5037603;28;20595;-31
2022/05/02 05:44:24;;;;;;;1.20;1.10;;;;;;;-148.56;100.00;61375.16;5050605;28;20136;-30
2022/05/02 05:47:56;;;;;;;;;;;;;;;-148.56;100.00;61375.16;5043021;28;20039;-30
2022/05/02 05:51:33;;;;;;;1.20;1.10;;;;;;;-148.56;100.00;61375.16;5043764;28;19972;-30
2022/05/02 05:55:04;;;;;;;0.98;0.93;;;;;;;-148.56;100.00;61375.16;5047794;28;20494;-30
2022/05/02 05:58:54;;;;;;;1.08;0.95;;;;;;;-148.56;100.00;61375.16;5048547;28;20028;-32
2022/05/02 06:02:44;;;;;;;1.00;0.88;;;;;;;-148.56;100.00;61375.16;5044098;28;20039;-33
2022/05/02 06:06:07;;;;;;;1.13;1.02;;;;;;;-148.56;100.00;61375.16;5042361;28;20035;-33
2022/05/02 06:09:30;;;;;;;1.10;0.95;;;;;;;-148.56;100.00;61375.16;5034690;28;20506;-31
2022/05/02 06:12:56;;;;;;;1.45;1.35;;;;;;;-148.56;100.00;61375.16;5038112;28;20031;-31
2022/05/02 06:20:07;;;;;;;1.52;1.08;;;;;;;-148.56;100.00;61375.16;5027945;28;20067;-31
2022/05/02 06:23:37;;;;;;;0.93;0.90;;;;;;;-148.56;100.00;61375.16;5030889;28;20048;-31
2022/05/02 06:27:01;;;;;;;2.15;1.10;;;;;;;-148.56;100.00;61375.16;5041361;28;20075;-29
2022/05/02 06:30:24;;;;;;;2.47;1.40;;;;;;;-148.56;100.00;61375.16;5034471;28;20090;-30
2022/05/02 06:33:48;;;;;;;1.38;1.20;;;;;;;-148.56;100.00;61375.16;5023408;28;20028;-31
2022/05/02 06:37:40;;;;;;;3.15;1.70;;;;;;;-148.56;100.00;61375.16;5051103;28;20123;-29
2022/05/02 06:41:37;;;;;;;3.17;1.80;;;;;;;-148.56;100.00;61375.16;5042760;28;20035;-30
2022/05/02 06:45:22;;;;;;;3.05;2.13;;;;;;;-148.56;100.00;61375.16;5042102;28;20590;-29
2022/05/02 06:49:02;;;;;;;10.63;2.10;;;;;;;-148.56;100.00;61375.16;5038242;28;20041;-31
2022/05/02 06:52:11;;;;;;;3.55;2.00;;;;;;;-148.56;100.00;61375.16;5035591;28;20063;-32
2022/05/02 06:55:48;;;;;;;11.32;2.88;;;;;;;-148.56;100.00;61375.16;5038271;28;20182;-38
2022/05/02 06:58:42;;;;;;;5.25;2.97;;;;;;;-148.56;100.00;61375.16;5036160;28;20037;-31
2022/05/02 07:01:51;;;;;;;6.65;3.47;;;;;;;-148.56;100.00;61375.16;5042486;28;20081;-30
2022/05/02 07:04:53;;;;;;;7.30;3.72;;;;;;;-148.56;100.00;61375.16;5042466;28;20032;-31
2022/05/02 07:07:53;;;;;;;10.35;3.33;;;;;;;-148.56;100.00;61375.16;5041979;28;20060;-30
2022/05/02 07:10:24;;;;;;;7.40;3.90;;;;;;;-148.56;100.00;61375.16;5043233;28;20037;-31
2022/05/02 07:13:16;;;;;;;7.85;4.13;;;;;;;-148.56;100.00;61375.16;5046676;28;20039;-30
2022/05/02 07:15:52;;;;;;;7.20;4.33;;;;;;;-148.56;100.00;61375.16;5044614;28;20434;-31
2022/05/02 07:18:45;;;;;;;7.78;3.95;;;;;;;-148.56;100.00;61375.16;5039456;28;21320;-32
2022/05/02 07:21:33;;;;;;;8.82;3.90;;;;;;;-148.56;100.00;61375.16;5044327;28;20296;-31
2022/05/02 07:24:23;;;;;;;7.43;4.30;;;;;;;-148.56;100.00;61375.16;5042847;28;20039;-28
2022/05/02 07:27:00;;;;;;;10.13;4.60;;;;;;;-148.56;100.00;61375.16;5041970;28;20033;-31
2022/05/02 07:29:26;;;;;;;8.98;3.83;;;;;;;-148.56;100.00;61375.16;5026974;28;20046;-31
2022/05/02 07:31:52;;;;;;;7.63;4.47;;;;;;;-148.56;100.00;61375.16;5009911;28;20509;-30
2022/05/02 07:34:22;;;;;;;6.95;4.50;;;;;;;-148.56;100.00;61375.16;5011231;28;20032;-30
2022/05/02 07:36:51;;;;;;;7.00;4.15;;;;;;;-148.56;100.00;61375.16;5026205;28;20045;-30
2022/05/02 07:39:21;;;;;;;5.07;3.90;;;;;;;-148.56;100.00;61375.16;5043987;28;20799;-32
2022/05/02 07:41:51;;;;;;;5.45;3.92;;;;;;;-148.56;100.00;61375.16;5027977;28;20032;-31
2022/05/02 07:44:25;;;;;;;7.72;4.80;;;;;;;-148.56;100.00;61375.16;5025961;28;20462;-37
2022/05/02 07:46:51;;;;;;;6.50;4.40;;;;;;;-148.56;100.00;61375.16;5026544;28;20036;-30
2022/05/02 07:49:22;;;;;;;10.75;4.72;;;;;;;-148.56;100.00;61375.16;5026508;28;20051;-35
2022/05/02 07:51:51;;;;;;;6.95;4.40;;;;;;;-148.56;100.00;61375.16;5033381;28;20029;-30
2022/05/02 07:54:25;;;;;;;9.63;4.72;;;;;;;-148.56;100.00;61375.16;5024318;28;20040;-30
2022/05/02 07:56:51;;;;;;;7.70;4.50;;;;;;;-148.56;100.00;61375.16;5042025;28;20037;-30
2022/05/02 07:59:19;;;;;;;7.30;4.88;;;;;;;-148.56;100.00;61375.16;5025080;28;20187;-32
2022/05/02 08:01:51;;;;;;;10.38;4.90;;;;;;;-148.56;100.00;61375.16;5027639;28;20118;-30
2022/05/02 08:04:20;;;;;;;7.07;3.95;;;;;;;-148.56;100.00;61375.16;5042874;28;20170;-31
2022/05/02 08:07:02;;;;;;;6.32;4.60;;;;;;;-148.56;100.00;61375.16;5040890;28;20112;-30
2022/05/02 08:09:32;;;;;;;;;;;;;;;-148.56;100.00;61375.16;5041493;28;20054;-31
2022/05/02 08:12:22;;;;;;;5.95;4.15;;;;;;;-148.56;100.00;61375.16;5039951;28;20005;-31
2022/05/02 08:14:51;;;;;;;6.55;4.00;;;;;;;-148.56;100.00;61375.16;5043763;28;20044;-30
2022/05/02 08:17:20;;;;;;;9.95;6.43;;;;;;;-148.56;100.00;61375.16;5038344;28;20028;-31
2022/05/02 08:19:57;;;;;;;11.05;8.98;;;;;;;-148.56;100.00;61375.16;5029687;28;20024;-30
2022/05/02 08:28:35;;;;;;;13.65;9.90;;;;;;;-148.56;100.00;61375.16;5046028;28;20032;-29
2022/05/02 08:31:25;;;;;;;12.50;9.93;;;;;;;-148.56;100.00;61375.16;5027625;28;20821;-31
2022/05/02 08:33:58;;;;;;;12.05;10.07;;;;;;;-148.56;100.00;61375.16;5025194;28;20033;-31
2022/05/02 08:36:41;;;;;;;10.85;9.75;;;;;;;-148.56;100.00;61375.16;5040455;28;20112;-34
2022/05/02 08:39:06;;;;;;;11.65;8.38;;;;;;;-148.56;100.00;61375.16;5028159;28;20115;-30
2022/05/02 08:42:16;;;;;;;7.97;6.53;;;;;;;-148.56;100.00;61375.16;5019373;28;20457;-31
2022/05/02 08:44:42;;;;;;;7.18;5.30;;;;;;;-148.56;100.00;61375.16;4945593;28;20073;-30
2022/05/02 08:47:30;;;;;;;6.68;4.70;;;;;;;-148.56;100.00;61375.16;4944099;28;20038;-30
2022/05/02 08:50:20;;;;;;;8.30;4.82;;;;;;;-148.56;100.00;61375.16;4987517;28;20037;-31
2022/05/02 08:52:46;;;;;;;6.32;4.15;;;;;;;-148.56;100.00;61375.16;5043463;28;20043;-31
2022/05/02 08:55:27;;;;;;;7.70;4.22;;;;;;;-148.56;100.00;61375.16;5049961;28;20947;-31
2022/05/02 08:58:30;;;;;;;5.85;3.83;;;;;;;-148.56;100.00;61375.16;5053217;28;20025;-29
2022/05/02 09:01:06;;;;;;;6.70;4.00;;;;;;;-148.56;100.00;61375.16;5050377;28;20028;-31
2022/05/02 09:03:50;;;;;;;7.35;3.83;;;;;;;-148.56;100.00;61375.16;5029647;28;20804;-32
2022/05/02 09:06:40;;;;;;;7.95;3.92;;;;;;;-148.56;100.00;61375.16;5052671;28;20055;-33
2022/05/02 09:09:27;;;;;;;6.90;3.70;;;;;;;-148.56;100.00;61375.16;5048624;28;20040;-31
2022/05/02 09:12:23;;;;;;;8.10;3.88;;;;;;;-148.56;100.00;61375.16;5049740;28;20070;-31
2022/05/02 09:14:54;;;;;;;9.32;3.60;;;;;;;-148.56;100.00;61375.16;5045487;28;20043;-32
2022/05/02 09:17:29;;;;;;;6.78;3.40;;;;;;;-148.56;100.00;61375.16;5046106;28;20050;-33
2022/05/02 09:20:21;;;;;;;5.85;3.60;;;;;;;-148.56;100.00;61375.16;5051004;28;20048;-30
2022/05/02 09:23:11;;;;;;;4.65;3.42;;;;;;;-148.56;100.00;61375.16;5045859;28;20033;-30
2022/05/02 09:25:49;;;;;;;6.07;3.50;;;;;;;-148.56;100.00;61375.16;5052982;28;20043;-31
2022/05/02 09:28:18;;;;;;;3.88;3.20;;;;;;;-148.56;100.00;61375.16;5042458;28;20393;-30
2022/05/02 09:30:59;;;;;;;4.95;3.30;;;;;;;-148.56;100.00;61375.16;5046148;28;20024;-31
2022/05/02 09:33:30;;;;;;;5.03;3.33;;;;;;;-148.56;100.00;61375.16;5014275;28;20036;-29
2022/05/02 09:36:22;;;;;;;5.50;3.45;;;;;;;-148.56;100.00;61375.16;5050630;28;20045;-30
2022/05/02 09:39:01;;;;;;;4.65;2.95;;;;;;;-148.56;100.00;61375.16;5046231;28;20041;-31
2022/05/02 09:41:45;;;;;;;5.18;3.10;;;;;;;-148.56;100.00;61375.16;5044352;28;20039;-31
2022/05/02 09:50:30;;;;;;;5.07;3.17;;;;;;;-148.56;100.00;61375.16;5035973;28;20036;-32
2022/05/02 09:52:55;;;;;;;;;;;;;;;-148.56;100.00;61375.16;5037368;28;20029;-33
2022/05/02 09:58:20;;;;;;;3.50;2.83;;;;;;;-148.56;100.00;61375.16;5041741;28;20510;-30
2022/05/02 10:01:11;;;;;;;3.60;2.75;;;;;;;-148.56;100.00;61375.16;5043465;28;20083;-29
2022/05/02 10:04:28;;;;;;;4.27;3.30;;;;;;;-148.56;100.00;61375.16;5038150;28;20055;-29
2022/05/02 10:06:55;;;;;;;4.38;2.90;;;;;;;-148.56;100.00;61375.16;5004822;28;20106;-32
2022/05/02 10:09:57;;;;;;;7.53;2.80;;;;;;;-148.56;100.00;61375.16;5047267;28;20047;-32
2022/05/02 10:12:46;;;;;;;3.88;2.83;;;;;;;-148.56;100.00;61375.16;5041407;28;20093;-31
2022/05/02 10:15:21;;;;;;;5.57;2.67;;;;;;;-148.56;100.00;61375.16;5044833;28;20032;-31
2022/05/02 10:18:11;;;;;;;8.00;3.00;;;;;;;-148.56;100.00;61375.16;5051761;28;20028;-29
2022/05/02 10:21:08;;;;;;;10.07;3.03;;;;;;;-148.56;100.00;61375.16;5048263;28;20047;-31
2022/05/02 10:24:02;;;;;;;5.68;2.97;;;;;;;-148.56;100.00;61375.16;5030378;28;20506;-30
2022/05/02 10:26:32;;;;;;;4.35;2.72;;;;;;;-148.56;100.00;61375.16;5044732;28;20033;-31
2022/05/02 10:29:00;;;;;;;5.30;3.33;;;;;;;-148.56;100.00;61375.16;5046106;28;20028;-30
2022/05/02 10:31:25;;;;;;;7.93;3.10;;;;;;;-148.56;100.00;61375.16;5044151;28;20526;-30
2022/05/02 10:33:52;;;;;;;6.85;2.90;;;;;;;-148.56;100.00;61375.16;5040766;28;20036;-30
2022/05/02 10:36:23;;;;;;;8.85;3.58;;;;;;;-148.56;100.00;61375.16;5040469;28;20061;-31
2022/05/02 10:39:03;;;;;;;7.13;3.53;;;;;;;-148.56;100.00;61375.16;5049227;28;20039;-32
2022/05/02 10:41:45;;;;;;;9.02;3.60;;;;;;;-148.56;100.00;61375.16;5043189;28;20029;-30
2022/05/02 10:44:11;;;;;;;9.73;3.75;;;;;;;-148.56;100.00;61375.16;5053163;28;20035;-31
2022/05/02 10:46:36;;;;;;;11.20;3.88;;;;;;;-148.56;100.00;61375.16;5044639;28;20032;-30
2022/05/02 10:49:03;;;;;;;8.52;4.22;;;;;;;-148.56;100.00;61375.16;5013369;28;20033;-29
2022/05/02 10:51:59;;;;;;;15.65;5.45;;;;;;;-148.56;100.00;61375.16;5043580;28;20071;-30
2022/05/02 10:54:35;;;;;;;18.63;5.97;;;;;;;-148.56;100.00;61375.16;5046323;28;20086;-31
2022/05/02 10:57:05;;;;;;;15.85;6.82;;;;;;;-148.56;100.00;61375.16;5026716;28;20588;-29
2022/05/02 10:59:34;;;;;;;16.98;7.80;;;;;;;-148.56;100.00;61375.16;4995306;28;89333;-30
2022/05/02 11:02:19;;;;;;;23.20;8.00;;;;;;;-148.56;100.00;61375.16;5021123;28;20055;-28
2022/05/02 11:04:56;;;;;;;19.63;9.30;;;;;;;-148.56;100.00;61375.16;5045612;28;20047;-29
2022/05/02 11:07:31;;;;;;;26.75;8.43;;;;;;;-148.56;100.00;61375.16;5048060;28;20039;-29
2022/05/02 11:10:07;;;;;;;19.65;8.65;;;;;;;-148.56;100.00;61375.16;5045631;28;20032;-30
2022/05/02 11:12:45;;;;;;;19.90;8.50;;;;;;;-148.56;100.00;61375.16;5043448;28;20027;-30
2022/05/02 11:15:11;;;;;;;18.52;7.93;;;;;;;-148.56;100.00;61375.16;5020983;28;20217;-30
2022/05/02 11:18:07;;;;;;;22.33;7.90;;;;;;;-148.56;100.00;61375.16;5045103;28;20039;-29
2022/05/02 11:20:54;;;;;;;22.60;8.57;;;;;;;-148.56;100.00;61375.16;5038912;28;20028;-30
2022/05/02 11:23:45;;;;;;;23.38;7.80;;;;;;;-148.56;100.00;61375.16;5044029;28;20036;-31
2022/05/02 11:26:27;;;;;;;16.98;7.78;;;;;;;-148.56;100.00;61375.16;5031533;28;20066;-29
2022/05/02 11:29:18;;;;;;;17.52;7.68;;;;;;;-148.56;100.00;61375.16;5044578;28;20028;-28
2022/05/02 11:32:00;;;;;;;20.33;7.87;;;;;;;-148.56;100.00;61375.16;5029262;28;20082;-30
2022/05/02 11:34:34;;;;;;;;;;;;;;;-148.56;100.00;61375.16;5046110;28;20040;-30
2022/05/02 11:37:00;;;;;;;17.20;7.00;;;;;;;-148.56;100.00;61375.16;5040315;28;19924;-31
2022/05/02 11:39:43;;;;;;;18.75;7.32;;;;;;;-148.56;100.00;61375.16;5028825;28;20032;-30
2022/05/02 11:42:14;;;;;;;14.82;6.95;;;;;;;-148.56;100.00;61375.16;5043451;28;20024;-30
2022/05/02 11:44:49;;;;;;;15.20;6.80;;;;;;;-148.56;100.00;61375.16;5039922;28;20074;-28
2022/05/02 11:47:22;;;;;;;16.33;6.45;;;;;;;-148.56;100.00;61375.16;5034582;28;20020;-28
2022/05/02 11:50:06;;;;;;;13.75;5.85;;;;;;;-148.56;100.00;61375.16;5022367;28;20020;-28
2022/05/02 11:52:33;;;;;;;16.27;5.93;;;;;;;-148.56;100.00;61375.16;5049934;28;20059;-30
2022/05/02 11:54:59;;;;;;;17.90;6.35;;;;;;;-148.56;100.00;61375.16;5043651;28;20087;-30
2022/05/02 11:57:38;;;;;;;12.95;5.95;;;;;;;-148.56;100.00;61375.16;5042293;28;20114;-29
2022/05/02 12:00:06;;;;;;;11.40;5.65;;;;;;;-148.56;100.00;61375.16;5039794;28;20134;-29
2022/05/02 12:02:41;;;;;;;10.60;5.30;;;;;;;-148.56;100.00;61375.16;5036839;28;20024;-29
2022/05/02 12:05:23;;;;;;;18.10;6.35;;;;;;;-148.56;100.00;61375.16;5040223;28;20068;-28
2022/05/02 12:08:31;;;;;;;10.13;4.80;;;;;;;27.10;30.21;96469.06;5138828;27;20368;-29
2022/05/02 12:11:07;;;;;;;10.55;5.25;;;;;;;27.12;30.19;96456.66;5121500;27;20038;-28
2022/05/02 12:13:36;;;;;;;12.43;4.93;;;;;;;27.11;30.30;96460.22;5109016;27;20038;-30
2022/05/02 12:16:09;;;;;;;10.20;4.97;;;;;;;27.11;30.21;96457.59;5093626;27;20023;-30
2022/05/02 12:18:38;;;;;;;8.93;4.75;;;;;;;27.12;30.11;96461.91;5097525;27;20027;-29
2022/05/02 12:21:05;;;;;;;9.13;4.72;;;;;;;27.13;30.26;96452.25;5096252;27;20024;-28
2022/05/02 12:23:33;;;;;;;9.98;4.15;;;;;;;27.12;30.15;96456.66;5098945;27;20052;-29
2022/05/02 12:25:59;;;;;;;12.77;5.40;;;;;;;27.13;30.15;96453.09;5095485;27;20090;-29
2022/05/02 12:28:58;;;;;;;16.17;4.90;;;;;;;27.15;30.16;96454.78;5081474;27;20032;-30
2022/05/02 12:31:26;;;;;;;9.93;4.53;;;;;;;27.16;30.17;96452.06;5072067;27;20039;-29
2022/05/02 12:34:04;;;;;;;15.40;5.50;;;;;;;27.16;30.36;96451.19;5106952;27;20042;-29
2022/05/02 12:36:54;;;;;;;20.73;4.78;;;;;;;27.17;30.47;96458.13;5105098;27;20035;-30
2022/05/02 12:39:27;;;;;;;9.88;4.68;;;;;;;27.16;30.70;96446.78;5091666;27;20043;-30
2022/05/02 12:41:59;;;;;;;11.18;4.43;;;;;;;27.18;30.81;96449.28;5101335;27;20046;-29
2022/05/02 12:44:28;;;;;;;11.48;4.22;;;;;;;27.18;30.90;96450.16;5102519;27;20043;-28
2022/05/02 12:46:53;;;;;;;15.00;4.53;;;;;;;27.17;30.85;96447.63;5105471;27;20106;-28
2022/05/02 12:49:40;;;;;;;11.05;4.35;;;;;;;27.19;30.92;96446.56;5097640;27;20043;-30
2022/05/02 12:52:06;;;;;;;13.00;4.60;;;;;;;27.20;30.91;96447.44;5099002;27;20038;-28
2022/05/02 12:54:31;;;;;;;12.57;4.20;;;;;;;27.22;31.07;96440.28;5104956;27;20027;-28
2022/05/02 13:02:39;;;;;;;11.32;3.92;;;;;;;27.22;30.99;96435.88;5099454;27;20030;-28
2022/05/02 13:05:06;;;;;;;11.85;3.88;;;;;;;27.23;31.10;96431.47;5099080;27;20043;-30
2022/05/02 13:07:37;;;;;;;12.20;3.90;;;;;;;27.24;31.12;96433.13;5103216;27;20063;-28
2022/05/02 13:10:04;;;;;;;13.23;4.05;;;;;;;27.25;31.16;96434.81;5104308;27;20027;-30
2022/05/02 13:12:29;;;;;;;10.75;3.78;;;;;;;27.24;31.38;96427.88;5105806;27;20043;-29
2022/05/02 13:14:58;;;;;;;13.35;4.18;;;;;;;27.24;31.35;96431.34;5099220;27;20027;-29
2022/05/02 13:17:23;;;;;;;12.52;3.60;;;;;;;27.24;31.36;96433.97;5100711;27;20030;-29
2022/05/02 13:19:49;;;;;;;9.13;3.65;;;;;;;27.26;31.10;96441.75;5087824;28;20031;-31
2022/05/02 13:22:15;;;;;;;9.70;3.35;;;;;;;27.25;31.29;96429.56;5076799;28;20031;-29
2022/05/02 13:24:52;;;;;;;8.98;3.70;;;;;;;27.25;31.22;96419.03;5084355;28;20051;-34
2022/05/02 13:27:25;;;;;;;9.50;3.85;;;;;;;27.24;31.16;96423.44;5089029;28;20034;-29
2022/05/02 13:30:02;;;;;;;9.02;3.40;;;;;;;27.26;31.21;96425.97;5091528;28;20040;-31
2022/05/02 13:32:44;;;;;;;9.05;3.50;;;;;;;27.25;31.19;96419.88;5091655;28;20031;-29
2022/05/02 13:35:14;;;;;;;;;;;;;;;27.26;31.41;96412.81;5095890;28;20043;-28
2022/05/02 13:37:40;;;;;;;9.13;3.25;;;;;;;27.26;31.21;96416.31;5089830;28;19923;-32
2022/05/02 13:40:09;;;;;;;7.05;3.15;;;;;;;27.26;31.18;96404.94;5089436;28;20492;-29
2022/05/02 13:42:39;;;;;;;6.80;3.20;;;;;;;27.26;31.35;96410.19;5093796;28;20019;-28
2022/05/02 13:45:10;;;;;;;5.97;2.78;;;;;;;27.26;31.35;96410.19;5091827;28;20031;-30
2022/05/02 13:47:54;;;;;;;6.32;3.00;;;;;;;27.26;31.29;96404.94;5094416;27;20080;-30
2022/05/02 13:50:21;;;;;;;8.68;3.40;;;;;;;27.26;31.38;96405.78;5092013;28;20059;-29
2022/05/02 13:53:24;;;;;;;9.13;3.20;;;;;;;27.25;31.38;96403.25;5092647;28;20027;-28
2022/05/02 13:56:07;;;;;;;9.20;3.30;;;;;;;27.26;31.31;96399.66;5091299;28;20295;-32
2022/05/02 13:58:35;;;;;;;5.20;2.80;;;;;;;27.26;31.29;96405.78;5091548;28;20035;-30
2022/05/02 14:03:56;;;;;;;6.93;2.85;;;;;;;27.26;31.39;96405.78;5090099;28;20039;-29
2022/05/02 14:06:29;;;;;;;8.90;3.15;;;;;;;27.27;31.28;96401.38;5080591;28;20130;-29
2022/05/02 14:08:56;;;;;;;8.85;3.55;;;;;;;27.26;30.94;96389.16;5081201;28;20028;-29
2022/05/02 14:11:22;;;;;;;12.10;4.10;;;;;;;27.25;30.54;96390.94;5057063;27;20043;-29